createdAt,value
2023-03-03T00:00:04.125Z,9
2023-03-03T00:01:04.080Z,9
2023-03-03T00:02:03.872Z,9
2023-03-03T00:03:04.215Z,10
2023-03-03T00:04:04.164Z,9
2023-03-03T00:05:04.198Z,9
2023-03-03T00:06:03.551Z,9
2023-03-03T00:07:04.394Z,10
2023-03-03T00:08:03.857Z,9
2023-03-03T00:09:04.169Z,10
2023-03-03T00:10:04.174Z,10
2023-03-03T00:11:04.268Z,9
2023-03-03T00:12:03.436Z,9
2023-03-03T00:13:04.158Z,10
2023-03-03T00:14:03.546Z,10
2023-03-03T00:15:03.590Z,9
2023-03-03T00:16:03.793Z,10
2023-03-03T00:17:03.504Z,9
2023-03-03T00:18:03.757Z,10
2023-03-03T00:19:03.966Z,10
2023-03-03T00:20:04.037Z,9
2023-03-03T00:21:04.154Z,9
2023-03-03T00:22:03.549Z,10
2023-03-03T00:23:03.794Z,9
2023-03-03T00:24:03.961Z,10
2023-03-03T00:25:04.029Z,9
2023-03-03T00:26:03.862Z,10
2023-03-03T00:27:04.469Z,9
2023-03-03T00:28:03.882Z,10
2023-03-03T00:29:04.114Z,10
2023-03-03T00:30:04.158Z,9
2023-03-03T00:31:04.005Z,10
2023-03-03T00:32:03.782Z,9
2023-03-03T00:33:03.126Z,10
2023-03-03T00:34:03.503Z,10
2023-03-03T00:35:03.663Z,9
2023-03-03T00:36:03.181Z,9
2023-03-03T00:37:03.193Z,10
2023-03-03T00:38:03.661Z,10
2023-03-03T00:39:03.814Z,9
2023-03-03T00:40:03.762Z,10
2023-03-03T00:41:03.834Z,10
2023-03-03T00:42:03.240Z,9
2023-03-03T00:43:03.741Z,10
2023-03-03T00:44:03.490Z,9
2023-03-03T00:45:03.749Z,9
2023-03-03T00:46:03.758Z,9
2023-03-03T00:47:03.846Z,9
2023-03-03T00:48:04.213Z,9
2023-03-03T00:49:03.768Z,9
2023-03-03T00:50:04.067Z,9
2023-03-03T00:51:03.937Z,10
2023-03-03T00:52:03.240Z,9
2023-03-03T00:53:03.146Z,10
2023-03-03T00:54:03.525Z,10
2023-03-03T00:55:03.458Z,9
2023-03-03T00:56:03.583Z,9
2023-03-03T00:57:03.380Z,9
2023-03-03T00:58:03.712Z,9
2023-03-03T00:59:03.819Z,9
2023-03-03T01:00:03.238Z,9
2023-03-03T01:01:03.343Z,9
2023-03-03T01:02:04.683Z,9
2023-03-03T01:03:04.799Z,9
2023-03-03T01:04:04.927Z,9
2023-03-03T01:05:04.303Z,9
2023-03-03T01:06:04.583Z,9
2023-03-03T01:07:03.687Z,9
2023-03-03T01:08:03.601Z,9
2023-03-03T01:09:04.038Z,9
2023-03-03T01:10:04.147Z,9
2023-03-03T01:11:03.596Z,9
2023-03-03T01:12:04.466Z,9
2023-03-03T01:13:04.445Z,9
2023-03-03T01:14:04.149Z,9
2023-03-03T01:15:03.911Z,9
2023-03-03T01:16:04.037Z,9
2023-03-03T01:17:04.281Z,9
2023-03-03T01:18:04.269Z,9
2023-03-03T01:19:04.202Z,9
2023-03-03T01:20:04.668Z,9
2023-03-03T01:21:04.401Z,9
2023-03-03T01:22:03.509Z,9
2023-03-03T01:23:03.586Z,9
2023-03-03T01:24:03.686Z,9
2023-03-03T01:25:03.808Z,9
2023-03-03T01:26:03.510Z,9
2023-03-03T01:27:03.901Z,9
2023-03-03T01:28:03.586Z,9
2023-03-03T01:29:03.604Z,9
2023-03-03T01:30:03.501Z,9
2023-03-03T01:31:03.581Z,9
2023-03-03T01:32:03.770Z,9
2023-03-03T01:33:03.799Z,9
2023-03-03T01:34:04.230Z,10
2023-03-03T01:35:04.316Z,9
2023-03-03T01:36:03.722Z,10
2023-03-03T01:37:03.901Z,9
2023-03-03T01:38:03.928Z,9
2023-03-03T01:39:04.404Z,10
2023-03-03T01:40:03.866Z,9
2023-03-03T01:41:03.907Z,9
2023-03-03T01:42:03.935Z,9
2023-03-03T01:43:03.961Z,9
2023-03-03T01:44:03.967Z,10
2023-03-03T01:45:04.486Z,10
2023-03-03T01:46:03.828Z,9
2023-03-03T01:47:04.099Z,9
2023-03-03T01:48:04.265Z,10
2023-03-03T01:49:04.302Z,9
2023-03-03T01:50:04.311Z,10
2023-03-03T01:51:04.181Z,9
2023-03-03T01:52:03.238Z,9
2023-03-03T01:53:03.672Z,9
2023-03-03T01:54:03.806Z,9
2023-03-03T01:55:03.798Z,9
2023-03-03T01:56:03.814Z,9
2023-03-03T01:57:03.830Z,10
2023-03-03T01:58:03.784Z,10
2023-03-03T01:59:04.084Z,9
2023-03-03T02:00:04.133Z,10
2023-03-03T02:01:04.286Z,9
2023-03-03T02:02:04.042Z,9
2023-03-03T02:03:04.269Z,9
2023-03-03T02:04:03.891Z,9
2023-03-03T02:05:03.803Z,9
2023-03-03T02:06:03.860Z,10
2023-03-03T02:07:04.537Z,10
2023-03-03T02:08:04.826Z,10
2023-03-03T02:09:04.494Z,10
2023-03-03T02:10:04.389Z,10
2023-03-03T02:11:04.668Z,10
2023-03-03T02:12:03.887Z,10
2023-03-03T02:13:04.197Z,10
2023-03-03T02:14:03.839Z,9
2023-03-03T02:15:03.888Z,9
2023-03-03T02:16:03.810Z,9
2023-03-03T02:17:03.920Z,10
2023-03-03T02:18:04.247Z,9
2023-03-03T02:19:04.258Z,9
2023-03-03T02:20:04.017Z,10
2023-03-03T02:21:03.722Z,10
2023-03-03T02:22:04.611Z,9
2023-03-03T02:23:04.670Z,9
2023-03-03T02:24:04.370Z,9
2023-03-03T02:25:04.475Z,9
2023-03-03T02:26:04.532Z,10
2023-03-03T02:27:03.721Z,10
2023-03-03T02:28:03.633Z,10
2023-03-03T02:29:03.989Z,9
2023-03-03T02:30:03.989Z,9
2023-03-03T02:31:03.991Z,9
2023-03-03T02:32:04.497Z,10
2023-03-03T02:33:04.350Z,10
2023-03-03T02:34:04.456Z,9
2023-03-03T02:35:04.725Z,9
2023-03-03T02:36:04.128Z,9
2023-03-03T02:37:03.477Z,9
2023-03-03T02:38:03.632Z,10
2023-03-03T02:39:03.605Z,9
2023-03-03T02:40:03.560Z,9
2023-03-03T02:41:03.236Z,9
2023-03-03T02:42:03.993Z,9
2023-03-03T02:43:03.592Z,9
2023-03-03T02:44:03.920Z,10
2023-03-03T02:45:03.985Z,9
2023-03-03T02:46:04.017Z,9
2023-03-03T02:47:03.898Z,9
2023-03-03T02:48:04.246Z,10
2023-03-03T02:49:03.834Z,9
2023-03-03T02:50:03.999Z,10
2023-03-03T02:51:04.073Z,9
2023-03-03T02:52:04.101Z,10
2023-03-03T02:53:04.148Z,9
2023-03-03T02:54:04.187Z,9
2023-03-03T02:55:04.212Z,9
2023-03-03T02:56:04.586Z,9
2023-03-03T02:57:03.702Z,10
2023-03-03T02:58:03.216Z,9
2023-03-03T02:59:03.291Z,9
2023-03-03T03:00:03.204Z,9
2023-03-03T03:01:03.885Z,10
2023-03-03T03:02:03.577Z,10
2023-03-03T03:03:03.627Z,10
2023-03-03T03:04:04.113Z,9
2023-03-03T03:05:03.497Z,10
2023-03-03T03:06:03.541Z,10
2023-03-03T03:07:04.045Z,10
2023-03-03T03:08:04.254Z,9
2023-03-03T03:09:04.612Z,9
2023-03-03T03:10:03.958Z,9
2023-03-03T03:11:04.231Z,9
2023-03-03T03:12:04.324Z,9
2023-03-03T03:13:04.488Z,9
2023-03-03T03:14:03.903Z,10
2023-03-03T03:15:03.833Z,10
2023-03-03T03:16:04.363Z,10
2023-03-03T03:17:04.283Z,9
2023-03-03T03:18:04.334Z,10
2023-03-03T03:19:04.545Z,9
2023-03-03T03:20:04.049Z,10
2023-03-03T03:21:04.312Z,9
2023-03-03T03:22:03.618Z,10
2023-03-03T03:23:03.970Z,10
2023-03-03T03:24:03.833Z,10
2023-03-03T03:25:03.765Z,10
2023-03-03T03:26:03.624Z,10
2023-03-03T03:27:04.584Z,10
2023-03-03T03:28:03.979Z,10
2023-03-03T03:29:04.320Z,10
2023-03-03T03:30:04.399Z,10
2023-03-03T03:31:04.099Z,9
2023-03-03T03:32:04.535Z,9
2023-03-03T03:33:04.162Z,10
2023-03-03T03:34:04.456Z,10
2023-03-03T03:35:04.630Z,10
2023-03-03T03:36:04.224Z,10
2023-03-03T03:37:04.223Z,9
2023-03-03T03:38:03.654Z,10
2023-03-03T03:39:03.773Z,10
2023-03-03T03:40:03.829Z,10
2023-03-03T03:41:04.138Z,10
2023-03-03T03:42:03.809Z,10
2023-03-03T03:43:03.823Z,10
2023-03-03T03:44:04.274Z,10
2023-03-03T03:45:04.108Z,10
2023-03-03T03:46:04.276Z,10
2023-03-03T03:47:04.542Z,10
2023-03-03T03:48:04.045Z,10
2023-03-03T03:49:04.075Z,10
2023-03-03T03:50:04.495Z,10
2023-03-03T03:51:04.154Z,10
2023-03-03T03:52:03.438Z,10
2023-03-03T03:53:03.583Z,10
2023-03-03T03:54:03.414Z,10
2023-03-03T03:55:03.540Z,10
2023-03-03T03:56:03.582Z,10
2023-03-03T03:57:03.869Z,10
2023-03-03T03:58:04.096Z,10
2023-03-03T03:59:03.851Z,10
2023-03-03T04:00:03.981Z,10
2023-03-03T04:01:04.108Z,10
2023-03-03T04:02:03.862Z,10
2023-03-03T04:03:03.837Z,11
2023-03-03T04:04:03.974Z,10
2023-03-03T04:05:04.053Z,10
2023-03-03T04:06:03.779Z,10
2023-03-03T04:07:04.562Z,10
2023-03-03T04:08:03.929Z,10
2023-03-03T04:09:04.505Z,10
2023-03-03T04:10:03.985Z,10
2023-03-03T04:11:04.121Z,10
2023-03-03T04:12:03.455Z,10
2023-03-03T04:13:03.564Z,10
2023-03-03T04:14:03.707Z,10
2023-03-03T04:15:03.658Z,10
2023-03-03T04:16:03.697Z,10
2023-03-03T04:17:04.159Z,10
2023-03-03T04:18:03.632Z,10
2023-03-03T04:19:04.010Z,10
2023-03-03T04:20:04.034Z,10
2023-03-03T04:21:03.678Z,11
2023-03-03T04:22:04.018Z,11
2023-03-03T04:23:04.377Z,11
2023-03-03T04:24:04.461Z,11
2023-03-03T04:25:04.543Z,11
2023-03-03T04:26:04.594Z,10
2023-03-03T04:27:03.021Z,11
2023-03-03T04:28:05.520Z,10
2023-03-03T04:29:03.311Z,10
2023-03-03T04:30:03.339Z,11
2023-03-03T04:31:03.077Z,10
2023-03-03T04:32:03.755Z,11
2023-03-03T04:33:03.324Z,11
2023-03-03T04:34:03.912Z,10
2023-03-03T04:35:08.270Z,11
2023-03-03T04:36:03.614Z,10
2023-03-03T04:37:03.921Z,11
2023-03-03T04:38:04.075Z,11
2023-03-03T04:39:04.304Z,10
2023-03-03T04:40:04.283Z,11
2023-03-03T04:41:03.729Z,11
2023-03-03T04:42:04.316Z,10
2023-03-03T04:43:03.760Z,11
2023-03-03T04:44:04.066Z,10
2023-03-03T04:45:04.377Z,11
2023-03-03T04:46:03.869Z,11
2023-03-03T04:47:03.066Z,10
2023-03-03T04:48:03.573Z,11
2023-03-03T04:49:03.090Z,10
2023-03-03T04:50:03.035Z,11
2023-03-03T04:51:03.355Z,11
2023-03-03T04:52:03.526Z,11
2023-03-03T04:53:03.990Z,11
2023-03-03T04:54:03.862Z,11
2023-03-03T04:55:03.493Z,11
2023-03-03T04:56:03.654Z,11
2023-03-03T04:57:03.166Z,11
2023-03-03T04:58:03.333Z,11
2023-03-03T04:59:03.413Z,11
2023-03-03T05:00:03.367Z,10
2023-03-03T05:01:03.503Z,11
2023-03-03T05:02:04.468Z,11
2023-03-03T05:03:05.037Z,11
2023-03-03T05:04:04.745Z,11
2023-03-03T05:05:04.854Z,11
2023-03-03T05:06:04.542Z,11
2023-03-03T05:07:03.797Z,11
2023-03-03T05:08:03.904Z,11
2023-03-03T05:09:03.651Z,11
2023-03-03T05:10:03.680Z,11
2023-03-03T05:11:03.764Z,11
2023-03-03T05:12:03.814Z,11
2023-03-03T05:13:03.960Z,11
2023-03-03T05:14:04.103Z,11
2023-03-03T05:15:04.196Z,11
2023-03-03T05:16:04.265Z,11
2023-03-03T05:17:04.320Z,11
2023-03-03T05:18:04.493Z,12
2023-03-03T05:19:04.338Z,11
2023-03-03T05:20:04.689Z,11
2023-03-03T05:21:04.801Z,11
2023-03-03T05:22:03.998Z,11
2023-03-03T05:23:04.255Z,12
2023-03-03T05:24:03.887Z,12
2023-03-03T05:25:03.954Z,11
2023-03-03T05:26:03.924Z,12
2023-03-03T05:27:04.105Z,11
2023-03-03T05:28:04.686Z,12
2023-03-03T05:29:04.288Z,12
2023-03-03T05:30:04.401Z,11
2023-03-03T05:31:04.196Z,11
2023-03-03T05:32:04.577Z,11
2023-03-03T05:33:04.675Z,11
2023-03-03T05:34:04.063Z,11
2023-03-03T05:35:04.474Z,11
2023-03-03T05:36:04.634Z,12
2023-03-03T05:37:03.790Z,12
2023-03-03T05:38:05.485Z,12
2023-03-03T05:39:04.071Z,11
2023-03-03T05:40:03.999Z,12
2023-03-03T05:41:03.500Z,11
2023-03-03T05:42:04.062Z,11
2023-03-03T05:43:04.148Z,12
2023-03-03T05:44:03.964Z,12
2023-03-03T05:45:03.845Z,12
2023-03-03T05:46:03.864Z,12
2023-03-03T05:47:03.725Z,12
2023-03-03T05:48:03.844Z,11
2023-03-03T05:49:03.821Z,12
2023-03-03T05:50:03.591Z,12
2023-03-03T05:51:04.087Z,12
2023-03-03T05:52:03.814Z,11
2023-03-03T05:53:03.889Z,11
2023-03-03T05:54:03.985Z,11
2023-03-03T05:55:03.457Z,11
2023-03-03T05:56:03.898Z,11
2023-03-03T05:57:03.601Z,12
2023-03-03T05:58:03.984Z,11
2023-03-03T05:59:04.141Z,11
2023-03-03T06:00:04.232Z,12
2023-03-03T06:01:03.887Z,11
2023-03-03T06:02:04.110Z,11
2023-03-03T06:03:04.328Z,11
2023-03-03T06:04:03.804Z,12
2023-03-03T06:05:03.714Z,11
2023-03-03T06:06:03.955Z,11
2023-03-03T06:07:04.124Z,11
2023-03-03T06:08:04.173Z,11
2023-03-03T06:09:04.151Z,11
2023-03-03T06:10:04.302Z,12
2023-03-03T06:11:03.836Z,12
2023-03-03T06:12:03.995Z,11
2023-03-03T06:13:03.478Z,12
2023-03-03T06:14:03.663Z,12
2023-03-03T06:15:03.592Z,12
2023-03-03T06:16:03.463Z,11
2023-03-03T06:17:03.430Z,11
2023-03-03T06:18:03.956Z,12
2023-03-03T06:19:03.514Z,12
2023-03-03T06:20:03.549Z,12
2023-03-03T06:21:03.831Z,12
2023-03-03T06:22:04.365Z,11
2023-03-03T06:23:04.332Z,11
2023-03-03T06:24:04.254Z,11
2023-03-03T06:25:04.420Z,12
2023-03-03T06:26:04.370Z,11
2023-03-03T06:27:04.640Z,12
2023-03-03T06:28:04.692Z,12
2023-03-03T06:29:04.273Z,11
2023-03-03T06:30:04.506Z,12
2023-03-03T06:31:04.123Z,12
2023-03-03T06:32:03.791Z,12
2023-03-03T06:33:03.402Z,11
2023-03-03T06:34:03.208Z,12
2023-03-03T06:35:03.116Z,12
2023-03-03T06:36:05.729Z,11
2023-03-03T06:37:03.248Z,12
2023-03-03T06:38:03.834Z,12
2023-03-03T06:39:03.356Z,12
2023-03-03T06:40:03.547Z,12
2023-03-03T06:41:03.482Z,12
2023-03-03T06:42:03.950Z,12
2023-03-03T06:43:03.734Z,12
2023-03-03T06:44:04.015Z,12
2023-03-03T06:45:03.399Z,12
2023-03-03T06:46:03.947Z,12
2023-03-03T06:47:04.074Z,12
2023-03-03T06:48:04.109Z,12
2023-03-03T06:49:03.563Z,12
2023-03-03T06:50:04.211Z,12
2023-03-03T06:51:04.110Z,12
2023-03-03T06:52:03.786Z,12
2023-03-03T06:53:04.093Z,12
2023-03-03T06:54:03.793Z,12
2023-03-03T06:55:03.961Z,13
2023-03-03T06:56:03.827Z,13
2023-03-03T06:57:03.685Z,12
2023-03-03T06:58:03.637Z,12
2023-03-03T06:59:04.280Z,13
2023-03-03T07:00:03.993Z,12
2023-03-03T07:01:03.761Z,12
2023-03-03T07:02:04.280Z,12
2023-03-03T07:03:04.242Z,13
2023-03-03T07:04:04.499Z,13
2023-03-03T07:05:04.179Z,13
2023-03-03T07:06:06.194Z,13
2023-03-03T07:07:03.680Z,13
2023-03-03T07:08:03.808Z,13
2023-03-03T07:09:03.646Z,13
2023-03-03T07:10:03.745Z,13
2023-03-03T07:11:03.852Z,13
2023-03-03T07:12:03.926Z,13
2023-03-03T07:13:04.317Z,13
2023-03-03T07:14:04.041Z,13
2023-03-03T07:15:04.327Z,13
2023-03-03T07:16:04.366Z,13
2023-03-03T07:17:03.371Z,13
2023-03-03T07:18:03.167Z,13
2023-03-03T07:19:03.345Z,13
2023-03-03T07:20:03.488Z,13
2023-03-03T07:21:03.683Z,13
2023-03-03T07:22:03.471Z,13
2023-03-03T07:23:03.652Z,13
2023-03-03T07:24:03.918Z,13
2023-03-03T07:25:03.564Z,13
2023-03-03T07:26:03.540Z,13
2023-03-03T07:27:04.068Z,13
2023-03-03T07:28:04.222Z,14
2023-03-03T07:29:04.062Z,13
2023-03-03T07:30:04.392Z,13
2023-03-03T07:31:04.255Z,13
2023-03-03T07:32:03.226Z,14
2023-03-03T07:33:03.534Z,13
2023-03-03T07:34:03.387Z,13
2023-03-03T07:35:03.349Z,13
2023-03-03T07:36:03.258Z,13
2023-03-03T07:37:03.701Z,13
2023-03-03T07:38:03.654Z,13
2023-03-03T07:39:03.964Z,13
2023-03-03T07:40:03.910Z,14
2023-03-03T07:41:03.551Z,14
2023-03-03T07:42:02.989Z,13
2023-03-03T07:43:03.247Z,13
2023-03-03T07:44:03.435Z,13
2023-03-03T07:45:03.141Z,14
2023-03-03T07:46:03.479Z,13
2023-03-03T07:47:03.926Z,14
2023-03-03T07:48:03.628Z,13
2023-03-03T07:49:03.994Z,13
2023-03-03T07:50:03.871Z,14
2023-03-03T07:51:03.943Z,13
2023-03-03T07:52:04.050Z,13
2023-03-03T07:53:04.122Z,13
2023-03-03T07:54:03.963Z,13
2023-03-03T07:55:03.925Z,13
2023-03-03T07:56:04.242Z,13
2023-03-03T07:57:03.197Z,14
2023-03-03T07:58:02.825Z,13
2023-03-03T07:59:03.508Z,14
2023-03-03T08:00:03.372Z,13
2023-03-03T08:01:03.575Z,13
2023-03-03T08:02:04.341Z,13
2023-03-03T08:03:04.291Z,13
2023-03-03T08:04:04.628Z,13
2023-03-03T08:05:05.321Z,13
2023-03-03T08:06:04.041Z,14
2023-03-03T08:07:04.530Z,13
2023-03-03T08:08:04.779Z,13
2023-03-03T08:09:04.396Z,13
2023-03-03T08:10:04.744Z,14
2023-03-03T08:11:04.866Z,13
2023-03-03T08:12:04.358Z,13
2023-03-03T08:13:04.659Z,14
2023-03-03T08:14:04.507Z,14
2023-03-03T08:15:04.627Z,13
2023-03-03T08:16:04.598Z,14
2023-03-03T08:17:04.749Z,13
2023-03-03T08:18:04.588Z,13
2023-03-03T08:19:04.831Z,14
2023-03-03T08:20:04.372Z,14
2023-03-03T08:21:04.883Z,14
2023-03-03T08:22:04.402Z,14
2023-03-03T08:23:04.196Z,14
2023-03-03T08:24:04.063Z,13
2023-03-03T08:25:04.325Z,14
2023-03-03T08:26:03.933Z,13
2023-03-03T08:27:04.097Z,14
2023-03-03T08:28:04.136Z,13
2023-03-03T08:29:04.334Z,14
2023-03-03T08:30:04.991Z,14
2023-03-03T08:31:16.849Z,13
2023-03-03T08:32:04.524Z,13
2023-03-03T08:33:04.539Z,13
2023-03-03T08:34:04.235Z,13
2023-03-03T08:35:04.584Z,13
2023-03-03T08:36:04.131Z,14
2023-03-03T08:37:04.006Z,14
2023-03-03T08:38:03.853Z,13
2023-03-03T08:39:04.087Z,13
2023-03-03T08:40:04.025Z,13
2023-03-03T08:41:03.892Z,13
2023-03-03T08:42:03.817Z,13
2023-03-03T08:43:03.933Z,14
2023-03-03T08:44:03.798Z,13
2023-03-03T08:45:04.226Z,13
2023-03-03T08:46:04.012Z,14
2023-03-03T08:47:03.972Z,14
2023-03-03T08:48:06.115Z,14
2023-03-03T08:49:04.016Z,14
2023-03-03T08:50:04.412Z,13
2023-03-03T08:51:03.968Z,14
2023-03-03T08:52:04.012Z,13
2023-03-03T08:53:04.038Z,13
2023-03-03T08:54:04.162Z,13
2023-03-03T08:55:04.417Z,14
2023-03-03T08:56:04.219Z,14
2023-03-03T08:57:03.789Z,14
2023-03-03T08:58:03.469Z,13
2023-03-03T08:59:03.744Z,14
2023-03-03T09:00:03.589Z,13
2023-03-03T09:01:03.369Z,13
2023-03-03T09:02:04.189Z,12
2023-03-03T09:03:04.422Z,13
2023-03-03T09:04:04.100Z,12
2023-03-03T09:05:04.147Z,12
2023-03-03T09:06:03.930Z,13
2023-03-03T09:07:04.635Z,12
2023-03-03T09:08:04.500Z,12
2023-03-03T09:09:04.677Z,12
2023-03-03T09:10:04.560Z,12
2023-03-03T09:11:04.466Z,12
2023-03-03T09:12:04.684Z,12
2023-03-03T09:13:04.910Z,11
2023-03-03T09:14:04.516Z,12
2023-03-03T09:15:04.548Z,12
2023-03-03T09:16:04.787Z,11
2023-03-03T09:17:04.344Z,11
2023-03-03T09:18:04.516Z,11
2023-03-03T09:19:04.069Z,11
2023-03-03T09:20:04.284Z,11
2023-03-03T09:21:03.868Z,11
2023-03-03T09:22:04.534Z,11
2023-03-03T09:23:04.399Z,11
2023-03-03T09:24:04.944Z,11
2023-03-03T09:25:04.347Z,11
2023-03-03T09:26:04.292Z,11
2023-03-03T09:27:04.015Z,11
2023-03-03T09:28:03.851Z,11
2023-03-03T09:29:03.786Z,10
2023-03-03T09:30:03.949Z,10
2023-03-03T09:31:07.131Z,10
2023-03-03T09:32:04.808Z,11
2023-03-03T09:33:04.892Z,10
2023-03-03T09:34:04.642Z,10
2023-03-03T09:42:03.993Z,10
2023-03-03T09:43:04.363Z,10
2023-03-03T09:44:04.282Z,10
2023-03-03T09:45:04.405Z,10
2023-03-03T09:46:04.250Z,9
2023-03-03T09:47:04.383Z,9
2023-03-03T09:48:04.598Z,10
2023-03-03T09:49:04.169Z,9
2023-03-03T09:50:04.235Z,9
2023-03-03T09:51:04.389Z,9
2023-03-03T09:52:03.133Z,10
2023-03-03T09:53:04.454Z,9
2023-03-03T09:54:04.660Z,10
2023-03-03T09:55:04.856Z,9
2023-03-03T09:56:04.413Z,9
2023-03-03T09:57:04.231Z,10
2023-03-03T09:58:10.446Z,9
2023-03-03T09:59:02.484Z,10
2023-03-03T10:00:02.524Z,9
2023-03-03T10:01:02.927Z,9
2023-03-03T10:02:04.881Z,9
2023-03-03T10:03:02.972Z,9
2023-03-03T10:04:02.777Z,9
2023-03-03T10:05:03.033Z,9
2023-03-03T10:06:03.980Z,9
2023-03-03T10:07:02.536Z,9
2023-03-03T10:08:02.582Z,9
2023-03-03T10:09:04.344Z,9
2023-03-03T10:10:02.799Z,9
2023-03-03T10:11:02.575Z,9
2023-03-03T10:12:03.255Z,9
2023-03-03T10:13:03.303Z,8
2023-03-03T10:14:03.519Z,9
2023-03-03T10:15:03.035Z,8
2023-03-03T10:16:04.170Z,9
2023-03-03T10:17:03.244Z,9
2023-03-03T10:18:03.086Z,9
2023-03-03T10:19:03.171Z,9
2023-03-03T10:20:03.045Z,8
2023-03-03T10:21:03.277Z,9
2023-03-03T10:22:02.921Z,8
2023-03-03T10:23:02.908Z,9
2023-03-03T10:24:02.685Z,8
2023-03-03T10:25:02.759Z,8
2023-03-03T10:26:02.512Z,8
2023-03-03T10:27:13.401Z,8
2023-03-03T10:28:02.867Z,8
2023-03-03T10:29:02.839Z,8
2023-03-03T10:30:02.808Z,8
2023-03-03T10:31:09.200Z,8
2023-03-03T10:32:03.282Z,8
2023-03-03T10:33:03.217Z,8
2023-03-03T10:34:03.140Z,8
2023-03-03T10:35:02.678Z,8
2023-03-03T10:36:07.455Z,8
2023-03-03T10:37:02.876Z,8
2023-03-03T10:38:02.888Z,8
2023-03-03T10:39:02.943Z,8
2023-03-03T10:40:02.861Z,8
2023-03-03T10:41:03.114Z,8
2023-03-03T10:42:02.264Z,8
2023-03-03T10:43:02.762Z,8
2023-03-03T10:44:03.011Z,8
2023-03-03T10:45:03.116Z,8
2023-03-03T10:46:03.331Z,8
2023-03-03T10:47:03.089Z,8
2023-03-03T10:48:03.043Z,8
2023-03-03T10:49:02.934Z,8
2023-03-03T10:50:02.679Z,8
2023-03-03T10:51:02.883Z,8
2023-03-03T10:52:03.398Z,8
2023-03-03T10:53:03.305Z,8
2023-03-03T10:54:03.056Z,8
2023-03-03T10:55:02.970Z,8
2023-03-03T10:56:03.242Z,8
2023-03-03T10:57:02.506Z,8
2023-03-03T10:58:02.239Z,8
2023-03-03T10:59:02.396Z,8
2023-03-03T11:00:02.803Z,8
2023-03-03T11:01:02.643Z,8
2023-03-03T11:02:03.098Z,8
2023-03-03T11:03:02.445Z,8
2023-03-03T11:04:02.852Z,7
2023-03-03T11:05:02.502Z,8
2023-03-03T11:06:02.855Z,8
2023-03-03T11:07:05.880Z,8
2023-03-03T11:08:02.435Z,8
2023-03-03T11:09:02.388Z,7
2023-03-03T11:10:02.093Z,8
2023-03-03T11:11:02.680Z,7
2023-03-03T11:12:02.786Z,7
2023-03-03T11:13:03.079Z,8
2023-03-03T11:14:03.220Z,7
2023-03-03T11:15:03.267Z,8
2023-03-03T11:16:02.935Z,8
2023-03-03T11:17:03.449Z,7
2023-03-03T11:18:02.922Z,7
2023-03-03T11:19:03.562Z,8
2023-03-03T11:20:03.274Z,7
2023-03-03T11:21:02.989Z,8
2023-03-03T11:22:02.078Z,7
2023-03-03T11:23:02.293Z,7
2023-03-03T11:24:02.340Z,8
2023-03-03T11:25:02.383Z,7
2023-03-03T11:26:02.492Z,8
2023-03-03T11:27:02.489Z,7
2023-03-03T11:28:02.742Z,8
2023-03-03T11:29:03.000Z,8
2023-03-03T11:30:02.547Z,7
2023-03-03T11:31:02.778Z,7
2023-03-03T11:32:02.663Z,7
2023-03-03T11:33:03.154Z,8
2023-03-03T11:34:03.008Z,8
2023-03-03T11:35:03.258Z,8
2023-03-03T11:36:03.224Z,7
2023-03-03T11:37:02.354Z,8
2023-03-03T11:38:02.769Z,7
2023-03-03T11:39:02.676Z,8
2023-03-03T11:40:02.927Z,8
2023-03-03T11:41:02.531Z,7
2023-03-03T11:42:02.043Z,8
2023-03-03T11:43:01.889Z,7
2023-03-03T11:44:02.072Z,8
2023-03-03T11:45:02.014Z,8
2023-03-03T11:46:02.392Z,8
2023-03-03T11:47:02.477Z,7
2023-03-03T11:48:02.352Z,8
2023-03-03T11:49:02.418Z,8
2023-03-03T11:50:02.957Z,7
2023-03-03T11:51:02.587Z,8
2023-03-03T11:52:02.520Z,7
2023-03-03T11:53:02.630Z,8
2023-03-03T11:54:02.599Z,8
2023-03-03T11:55:02.885Z,8
2023-03-03T11:56:02.821Z,8
2023-03-03T11:57:02.795Z,8
2023-03-03T11:58:02.702Z,8
2023-03-03T11:59:03.224Z,8
2023-03-03T12:00:03.153Z,8
2023-03-03T12:01:04.161Z,8
2023-03-03T12:02:02.283Z,8
2023-03-03T12:03:02.339Z,8
2023-03-03T12:04:02.744Z,8
2023-03-03T12:05:02.481Z,7
2023-03-03T12:06:02.225Z,7
2023-03-03T12:07:12.979Z,7
2023-03-03T12:08:02.879Z,8
2023-03-03T12:09:02.950Z,7
2023-03-03T12:10:02.901Z,7
2023-03-03T12:11:03.017Z,7
2023-03-03T12:12:02.456Z,7
2023-03-03T12:13:02.480Z,7
2023-03-03T12:14:02.495Z,8
2023-03-03T12:15:02.733Z,8
2023-03-03T12:16:02.753Z,7
2023-03-03T12:17:03.022Z,8
2023-03-03T12:18:02.936Z,7
2023-03-03T12:19:02.752Z,7
2023-03-03T12:20:03.040Z,7
2023-03-03T12:21:02.766Z,7
2023-03-03T12:22:02.873Z,7
2023-03-03T12:23:06.973Z,7
2023-03-03T12:24:04.764Z,7
2023-03-03T12:25:03.175Z,7
2023-03-03T12:26:03.046Z,7
2023-03-03T12:27:02.406Z,7
2023-03-03T12:28:02.683Z,7
2023-03-03T12:29:02.088Z,7
2023-03-03T12:30:04.945Z,7
2023-03-03T12:31:02.405Z,7
2023-03-03T12:32:02.668Z,7
2023-03-03T12:33:02.199Z,7
2023-03-03T12:34:02.362Z,7
2023-03-03T12:35:02.513Z,7
2023-03-03T12:36:02.963Z,7
2023-03-03T12:37:02.862Z,7
2023-03-03T12:38:02.868Z,7
2023-03-03T12:39:02.724Z,7
2023-03-03T12:40:02.807Z,7
2023-03-03T12:41:03.020Z,7
2023-03-03T12:42:04.417Z,7
2023-03-03T12:43:02.335Z,7
2023-03-03T12:44:01.950Z,6
2023-03-03T12:45:02.594Z,7
2023-03-03T12:46:02.302Z,7
2023-03-03T12:47:02.729Z,6
2023-03-03T12:48:02.799Z,7
2023-03-03T12:49:02.551Z,7
2023-03-03T12:50:07.467Z,7
2023-03-03T12:51:02.795Z,7
2023-03-03T12:52:02.292Z,6
2023-03-03T12:53:02.876Z,7
2023-03-03T12:54:01.905Z,7
2023-03-03T12:55:02.381Z,6
2023-03-03T12:56:02.203Z,6
2023-03-03T12:57:02.929Z,6
2023-03-03T12:58:02.547Z,6
2023-03-03T12:59:02.616Z,7
2023-03-03T13:00:02.651Z,7
2023-03-03T13:01:02.724Z,7
2023-03-03T13:02:02.473Z,7
2023-03-03T13:03:02.118Z,6
2023-03-03T13:04:02.329Z,6
2023-03-03T13:05:02.538Z,6
2023-03-03T13:06:02.378Z,7
2023-03-03T13:07:02.481Z,7
2023-03-03T13:08:02.768Z,6
2023-03-03T13:09:02.642Z,7
2023-03-03T13:10:02.653Z,7
2023-03-03T13:11:02.675Z,7
2023-03-03T13:12:02.717Z,6
2023-03-03T13:13:02.866Z,6
2023-03-03T13:14:02.275Z,7
2023-03-03T13:15:02.677Z,6
2023-03-03T13:16:05.534Z,7
2023-03-03T13:17:01.965Z,6
2023-03-03T13:18:01.861Z,7
2023-03-03T13:19:01.567Z,7
2023-03-03T13:20:01.709Z,6
2023-03-03T13:21:01.469Z,6
2023-03-03T13:22:02.354Z,7
2023-03-03T13:23:02.289Z,7
2023-03-03T13:24:02.058Z,7
2023-03-03T13:25:02.234Z,6
2023-03-03T13:26:01.850Z,7
2023-03-03T13:27:02.714Z,7
2023-03-03T13:28:02.451Z,6
2023-03-03T13:29:02.474Z,6
2023-03-03T13:30:02.523Z,7
2023-03-03T13:31:02.552Z,7
2023-03-03T13:32:02.480Z,6
2023-03-03T13:33:01.948Z,7
2023-03-03T13:34:02.325Z,7
2023-03-03T13:35:02.019Z,7
2023-03-03T13:36:02.175Z,7
2023-03-03T13:37:02.508Z,6
2023-03-03T13:38:02.176Z,7
2023-03-03T13:39:02.490Z,7
2023-03-03T13:40:02.445Z,7
2023-03-03T13:41:02.127Z,7
2023-03-03T13:42:01.919Z,6
2023-03-03T13:43:01.406Z,7
2023-03-03T13:44:01.444Z,7
2023-03-03T13:45:01.384Z,7
2023-03-03T13:46:01.737Z,7
2023-03-03T13:47:02.554Z,7
2023-03-03T13:48:02.275Z,7
2023-03-03T13:49:02.467Z,7
2023-03-03T13:50:02.263Z,7
2023-03-03T13:51:02.314Z,7
2023-03-03T13:52:02.863Z,7
2023-03-03T13:53:02.474Z,7
2023-03-03T13:54:02.680Z,7
2023-03-03T13:55:02.638Z,7
2023-03-03T13:56:02.648Z,7
2023-03-03T13:57:01.326Z,7
2023-03-03T13:58:01.763Z,7
2023-03-03T13:59:01.688Z,7
2023-03-03T14:00:01.723Z,8
2023-03-03T14:01:01.813Z,7
2023-03-03T14:02:01.917Z,7
2023-03-03T14:03:02.479Z,7
2023-03-03T14:04:02.055Z,7
2023-03-03T14:05:01.973Z,7
2023-03-03T14:06:02.079Z,7
2023-03-03T14:07:02.514Z,8
2023-03-03T14:08:01.678Z,8
2023-03-03T14:09:02.115Z,8
2023-03-03T14:10:01.777Z,7
2023-03-03T14:11:02.014Z,7
2023-03-03T14:12:01.926Z,7
2023-03-03T14:13:02.506Z,8
2023-03-03T14:14:02.538Z,8
2023-03-03T14:15:02.300Z,8
2023-03-03T14:16:02.526Z,8
2023-03-03T14:17:02.257Z,8
2023-03-03T14:18:02.102Z,8
2023-03-03T14:19:01.777Z,8
2023-03-03T14:20:03.431Z,8
2023-03-03T14:21:01.546Z,8
2023-03-03T14:22:01.623Z,9
2023-03-03T14:23:02.142Z,8
2023-03-03T14:24:02.470Z,9
2023-03-03T14:25:02.169Z,8
2023-03-03T14:26:02.615Z,8
2023-03-03T14:27:02.164Z,9
2023-03-03T14:28:01.810Z,8
2023-03-03T14:29:02.159Z,8
2023-03-03T14:30:01.707Z,9
2023-03-03T14:31:03.241Z,8
2023-03-03T14:32:01.742Z,9
2023-03-03T14:33:02.504Z,8
2023-03-03T14:34:02.668Z,8
2023-03-03T14:35:02.629Z,8
2023-03-03T14:36:02.214Z,8
2023-03-03T14:37:02.197Z,8